AKST,Max TemperatureF,Mean TemperatureF,Min TemperatureF,Max Dew PointF,MeanDew PointF,Min DewpointF,Max Humidity, Mean Humidity, Min Humidity, Max Sea Level PressureIn, Mean Sea Level PressureIn, Min Sea Level PressureIn, Max VisibilityMiles, Mean VisibilityMiles, Min VisibilityMiles, Max Wind SpeedMPH, Mean Wind SpeedMPH, Max Gust SpeedMPH,PrecipitationIn, CloudCover, Events, WindDirDegrees
2012-11-1,39,32,25,33,30,25,100,91,82,29.85,29.80,29.75,10,10,10,13,3,14,0.00,7,Fog,242
2012-11-2,39,34,28,36,31,26,100,91,82,29.74,29.61,29.58,10,9,6,23,3,29,0.03,8,Rain-Snow,249
2012-11-3,42,37,32,37,35,32,100,90,79,29.60,29.55,29.51,10,9,5,31,14,38,0.38,8,Rain,107
2012-11-4,42,39,36,39,38,36,100,93,86,29.59,29.24,29.05,10,7,0,24,7,31,0.33,8,Rain-Snow,152
2012-11-5,44,41,37,41,38,36,100,92,83,30.00,29.81,29.41,10,9,3,23,9,31,0.40,8,Rain,101
2012-11-6,40,38,36,38,37,36,100,93,85,29.91,29.80,29.73,10,9,6,23,6,31,0.22,8,Rain,104
2012-11-7,37,31,24,34,29,24,100,88,75,30.36,30.16,29.84,10,7,0,7,2,21,0.10,6,Fog-Rain-Snow,266
2012-11-8,31,26,20,26,22,18,100,85,69,30.39,30.38,30.36,10,10,8,7,2,10,0.00,2,Fog,54
2012-11-9,32,25,17,24,20,17,100,79,58,30.35,30.23,30.09,10,10,10,8,1,10,0.00,4,,126
2012-11-10,33,30,26,31,26,23,92,82,72,30.08,29.91,29.80,10,7,2,13,1,16,0.00,8,Snow,107
2012-11-11,34,33,32,34,32,32,100,96,92,29.79,29.74,29.71,10,4,2,9,4,13,0.47,8,Rain-Snow,76
2012-11-12,36,34,32,36,33,32,100,96,92,29.96,29.87,29.77,4,3,2,3,0,5,0.22,8,Rain-Snow,-1
2012-11-13,32,32,32,32,32,30,100,96,92,29.98,29.96,29.93,4,2,1,5,0,5,0.62,8,Snow,83
2012-11-14,40,36,32,37,35,32,100,93,85,29.97,29.79,29.58,10,8,2,35,14,41,0.48,8,Rain-Snow,82
2012-11-15,40,39,38,37,36,32,100,93,85,29.72,29.67,29.51,10,10,9,22,14,28,0.05,8,Rain,101
2012-11-16,40,35,30,33,31,27,100,85,70,29.48,29.41,29.32,10,6,0,17,3,22,0.13,8,Fog-Rain-Snow,263
2012-11-17,30,27,23,27,21,11,92,71,50,29.47,29.29,29.14,10,9,2,17,6,23,0.01,6,Snow,223
2012-11-18,26,24,21,16,13,10,71,63,55,29.42,29.36,29.24,10,9,5,17,4,20,T,8,Snow,70
2012-11-19,30,25,20,19,16,11,91,71,50,29.55,29.40,29.29,10,10,10,21,4,29,0.00,7,,96
2012-11-20,28,22,15,20,11,7,84,65,46,29.68,29.62,29.56,10,10,8,20,4,28,T,6,Snow,120
2012-11-21,28,23,17,15,10,7,92,69,46,29.99,29.79,29.58,10,10,9,15,7,23,T,7,Snow,101
2012-11-22,35,30,25,22,17,10,75,57,39,29.99,29.66,29.46,10,10,6,30,11,39,T,7,Snow,110
2012-11-23,37,34,30,23,19,15,69,57,44,29.62,29.58,29.54,10,10,10,21,8,26,T,8,Snow,140
2012-11-24,34,32,29,27,24,20,85,72,59,30.11,29.83,29.62,10,10,10,10,2,14,T,8,Snow,99
2012-11-25,33,31,29,30,28,23,100,81,61,30.25,30.18,30.12,10,4,1,9,0,10,0.32,8,Snow,95
2012-11-26,31,25,19,29,26,18,100,93,85,30.32,30.27,30.20,10,8,2,7,1,8,0.07,8,Fog-Snow,72
2012-11-27,24,20,15,22,17,12,96,88,80,30.19,30.06,29.92,10,8,0,5,0,16,0.00,7,Fog,130
2012-11-28,32,26,19,20,11,1,92,62,32,29.93,29.80,29.65,10,10,10,25,10,36,0.00,7,,101
2012-11-29,25,23,20,16,14,4,84,62,40,29.64,29.57,29.53,10,5,1,17,7,28,0.05,8,Snow,65
2012-11-30,23,17,11,14,8,4,84,65,45,29.60,29.53,29.49,10,10,10,18,5,23,0.00,5,,99